createdAt,value
2022-10-09T00:00:19.164Z,4.96
2022-10-09T00:05:23.609Z,4.94
2022-10-09T00:10:25.215Z,4.69
2022-10-09T00:15:27.718Z,4.59
2022-10-09T00:20:29.557Z,4.70
2022-10-09T00:25:31.768Z,4.73
2022-10-09T00:30:33.332Z,4.72
2022-10-09T00:35:38.612Z,4.90
2022-10-09T00:40:40.322Z,4.96
2022-10-09T00:45:48.335Z,4.73
2022-10-09T00:50:54.505Z,4.44
2022-10-09T00:55:56.599Z,4.47
2022-10-09T01:00:58.180Z,4.34
2022-10-09T01:06:27.919Z,4.20
2022-10-09T01:11:42.607Z,4.23
2022-10-09T01:17:09.790Z,4.19
2022-10-09T01:22:26.523Z,4.34
2022-10-09T01:27:29.398Z,4.33
2022-10-09T01:32:34.510Z,4.35
2022-10-09T01:37:38.661Z,4.11
2022-10-09T01:42:40.700Z,4.07
2022-10-09T01:47:42.428Z,4.18
2022-10-09T01:52:50.093Z,3.99
2022-10-09T01:58:10.917Z,4.41
2022-10-09T02:03:15.861Z,4.19
2022-10-09T02:08:20.966Z,3.97
2022-10-09T02:13:23.279Z,4.06
2022-10-09T02:18:45.547Z,4.41
2022-10-09T02:23:49.011Z,4.13
2022-10-09T02:28:51.326Z,3.96
2022-10-09T02:33:57.487Z,4.21
2022-10-09T02:38:59.642Z,3.99
2022-10-09T02:44:02.248Z,4.04
2022-10-09T02:49:04.817Z,4.04
2022-10-09T02:54:06.513Z,3.86
2022-10-09T02:59:17.254Z,3.77
2022-10-09T03:04:18.776Z,3.74
2022-10-09T03:09:20.261Z,3.71
2022-10-09T03:14:21.759Z,3.84
2022-10-09T03:19:23.392Z,3.79
2022-10-09T03:24:24.863Z,3.73
2022-10-09T03:29:26.356Z,3.67
2022-10-09T03:34:27.835Z,3.71
2022-10-09T03:39:29.327Z,3.81
2022-10-09T03:44:30.858Z,3.80
2022-10-09T03:49:32.695Z,3.63
2022-10-09T03:54:39.415Z,3.82
2022-10-09T03:59:40.919Z,3.71
2022-10-09T04:04:42.380Z,3.86
2022-10-09T04:09:43.858Z,3.79
2022-10-09T04:14:47.788Z,3.89
2022-10-09T04:19:49.287Z,4.13
2022-10-09T04:24:50.756Z,4.02
2022-10-09T04:29:52.224Z,3.85
2022-10-09T04:34:53.880Z,4.08
2022-10-09T04:39:55.395Z,3.89
2022-10-09T04:44:56.890Z,3.87
2022-10-09T04:50:06.028Z,3.90
2022-10-09T04:55:08.103Z,3.75
2022-10-09T05:00:56.777Z,3.99
2022-10-09T05:06:02.816Z,4.01
2022-10-09T05:11:26.148Z,3.94
2022-10-09T05:16:29.803Z,4.03
2022-10-09T05:21:31.655Z,4.29
2022-10-09T05:26:35.070Z,4.38
2022-10-09T05:31:37.650Z,4.41
2022-10-09T05:36:44.750Z,4.40
2022-10-09T05:41:46.437Z,4.38
2022-10-09T05:46:50.945Z,4.42
2022-10-09T05:52:05.678Z,3.95
2022-10-09T05:57:15.563Z,3.98
2022-10-09T06:02:17.122Z,4.01
2022-10-09T06:07:18.932Z,4.01
2022-10-09T06:12:22.872Z,4.04
2022-10-09T06:17:24.571Z,4.06
2022-10-09T06:22:28.521Z,4.41
2022-10-09T06:27:57.373Z,5.28
2022-10-09T06:32:58.982Z,5.34
2022-10-09T06:38:06.672Z,5.77
2022-10-09T06:43:10.638Z,6.15
2022-10-09T06:48:18.587Z,6.35
2022-10-09T06:53:26.119Z,6.90
2022-10-09T06:58:31.292Z,7.33
2022-10-09T07:03:34.032Z,7.50
2022-10-09T07:08:36.633Z,7.68
2022-10-09T07:13:38.598Z,8.23
2022-10-09T07:18:45.006Z,8.32
2022-10-09T07:23:51.985Z,8.79
2022-10-09T07:28:54.277Z,9.15
2022-10-09T07:33:59.130Z,9.31
2022-10-09T07:39:00.949Z,9.31
2022-10-09T07:44:05.366Z,9.90
2022-10-09T07:49:07.124Z,10.14
2022-10-09T07:54:13.999Z,10.67
2022-10-09T07:59:46.650Z,10.60
2022-10-09T08:04:48.412Z,11.16
2022-10-09T08:10:19.835Z,11.23
2022-10-09T08:15:23.983Z,11.46
2022-10-09T08:21:03.045Z,12.02
2022-10-09T08:26:14.049Z,12.12
2022-10-09T08:31:47.048Z,13.13
2022-10-09T08:36:54.779Z,12.74
2022-10-09T08:42:00.731Z,13.02
2022-10-09T08:47:34.668Z,13.44
2022-10-09T08:53:18.476Z,13.67
2022-10-09T08:58:37.631Z,14.48
2022-10-09T09:04:21.343Z,14.18
2022-10-09T09:10:05.008Z,14.28
2022-10-09T09:15:29.081Z,14.33
2022-10-09T09:27:50.456Z,14.79
2022-10-09T09:33:14.420Z,15.06
2022-10-09T09:38:48.059Z,15.17
2022-10-09T09:44:00.411Z,16.04
2022-10-09T09:49:07.097Z,15.64
2022-10-09T09:54:33.678Z,15.40
2022-10-09T09:59:46.567Z,16.00
2022-10-09T10:05:19.170Z,16.30
2022-10-09T10:10:34.463Z,16.15
2022-10-09T10:15:38.012Z,16.38
2022-10-09T10:20:48.948Z,15.74
2022-10-09T10:25:58.872Z,16.05
2022-10-09T10:31:12.859Z,16.89
2022-10-09T10:36:17.466Z,17.05
2022-10-09T10:41:36.512Z,16.49
2022-10-09T10:46:49.061Z,16.76
2022-10-09T10:52:05.899Z,16.69
2022-10-09T10:57:58.016Z,17.56
2022-10-09T11:03:16.662Z,17.72
2022-10-09T11:08:36.829Z,17.47
2022-10-09T11:13:47.846Z,17.08
2022-10-09T11:19:01.608Z,17.33
2022-10-09T11:24:41.439Z,17.22
2022-10-09T11:29:42.890Z,16.95
2022-10-09T11:35:05.871Z,17.65
2022-10-09T11:40:32.213Z,17.44
2022-10-09T11:45:48.487Z,17.39
2022-10-09T11:51:17.867Z,17.33
2022-10-09T11:56:30.595Z,17.67
2022-10-09T12:01:38.431Z,17.63
2022-10-09T12:06:55.581Z,17.63
2022-10-09T12:12:09.186Z,17.31
2022-10-09T12:17:22.768Z,17.70
2022-10-09T12:22:32.151Z,17.35
2022-10-09T12:27:38.070Z,17.48
2022-10-09T12:32:44.753Z,17.50
2022-10-09T12:37:46.311Z,17.40
2022-10-09T12:42:48.359Z,17.85
2022-10-09T12:47:51.392Z,17.32
2022-10-09T12:53:01.916Z,17.16
2022-10-09T12:58:08.059Z,16.89
2022-10-09T13:03:41.598Z,17.07
2022-10-09T13:08:44.394Z,17.21
2022-10-09T13:13:53.808Z,17.28
2022-10-09T13:19:04.463Z,17.13
2022-10-09T13:24:12.079Z,16.66
2022-10-09T13:29:14.677Z,16.98
2022-10-09T13:34:16.484Z,16.79
2022-10-09T13:39:17.991Z,16.91
2022-10-09T13:44:19.563Z,16.63
2022-10-09T13:49:21.019Z,16.98
2022-10-09T13:54:22.498Z,16.98
2022-10-09T13:59:24.617Z,17.07
2022-10-09T14:04:27.636Z,16.85
2022-10-09T14:09:29.129Z,17.00
2022-10-09T14:14:30.686Z,16.95
2022-10-09T14:19:32.335Z,17.04
2022-10-09T14:24:34.039Z,17.05
2022-10-09T14:29:37.437Z,16.92
2022-10-09T14:34:38.939Z,16.72
2022-10-09T14:39:43.375Z,16.56
2022-10-09T14:44:44.844Z,16.64
2022-10-09T14:49:46.391Z,16.71
2022-10-09T14:54:47.881Z,16.69
2022-10-09T14:59:50.390Z,16.46
2022-10-09T15:04:51.902Z,16.26
2022-10-09T15:09:54.850Z,16.22
2022-10-09T15:14:56.486Z,16.27
2022-10-09T15:19:58.117Z,16.32
2022-10-09T15:24:59.601Z,16.43
2022-10-09T15:30:01.262Z,16.20
2022-10-09T15:35:02.899Z,16.30
2022-10-09T15:40:04.551Z,16.08
2022-10-09T15:45:06.788Z,15.92
2022-10-09T15:50:08.928Z,16.00
2022-10-09T15:55:10.507Z,15.65
2022-10-09T16:00:12.476Z,15.58
2022-10-09T16:05:14.183Z,15.41
2022-10-09T16:10:15.688Z,15.38
2022-10-09T16:15:17.265Z,15.13
2022-10-09T16:20:19.066Z,14.94
2022-10-09T16:25:20.571Z,14.78
2022-10-09T16:30:22.140Z,14.66
2022-10-09T16:35:24.005Z,14.31
2022-10-09T16:40:49.986Z,14.10
2022-10-09T16:45:47.358Z,13.95
2022-10-09T16:50:48.822Z,13.79
2022-10-09T16:55:51.363Z,13.39
2022-10-09T17:01:00.542Z,13.17
2022-10-09T17:06:07.533Z,12.89
2022-10-09T17:11:12.194Z,12.60
2022-10-09T17:16:18.514Z,12.30
2022-10-09T17:21:20.349Z,12.22
2022-10-09T17:26:23.818Z,12.14
2022-10-09T17:31:26.879Z,11.97
2022-10-09T17:36:32.559Z,11.72
2022-10-09T17:41:34.503Z,11.66
2022-10-09T17:46:36.036Z,11.17
2022-10-09T17:51:39.725Z,11.25
2022-10-09T17:56:41.877Z,11.20
2022-10-09T18:01:43.641Z,11.24
2022-10-09T18:06:45.465Z,11.23
2022-10-09T18:11:47.122Z,11.20
2022-10-09T18:16:48.669Z,11.16
2022-10-09T18:21:50.386Z,11.15
2022-10-09T18:26:51.917Z,10.95
2022-10-09T18:31:55.711Z,10.86
2022-10-09T18:36:58.581Z,10.79
2022-10-09T18:42:04.289Z,10.51
2022-10-09T18:47:14.787Z,10.23
2022-10-09T18:52:17.370Z,9.93
2022-10-09T18:57:24.284Z,9.80
2022-10-09T19:02:27.354Z,9.83
2022-10-09T19:07:29.771Z,9.76
2022-10-09T19:12:34.132Z,9.76
2022-10-09T19:17:36.235Z,9.65
2022-10-09T19:22:38.059Z,9.43
2022-10-09T19:27:41.121Z,9.34
2022-10-09T19:32:43.681Z,9.15
2022-10-09T19:37:45.259Z,8.76
2022-10-09T19:42:50.865Z,8.76
2022-10-09T19:48:00.790Z,8.63
2022-10-09T19:53:05.691Z,8.58
2022-10-09T19:58:07.571Z,8.42
2022-10-09T20:03:13.926Z,8.56
2022-10-09T20:08:15.456Z,8.57
2022-10-09T20:13:17.387Z,8.65
2022-10-09T20:18:19.548Z,8.91
2022-10-09T20:23:23.711Z,9.38
2022-10-09T20:28:28.047Z,9.36
2022-10-09T20:33:30.118Z,9.50
2022-10-09T20:38:35.395Z,9.50
2022-10-09T20:43:38.042Z,9.57
2022-10-09T20:48:40.999Z,9.50
2022-10-09T20:53:42.683Z,9.47
2022-10-09T20:58:44.196Z,9.55
2022-10-09T21:03:45.815Z,9.67
2022-10-09T21:08:47.366Z,9.65
2022-10-09T21:13:49.781Z,9.63
2022-10-09T21:19:03.280Z,9.61
2022-10-09T21:24:05.158Z,9.55
2022-10-09T21:29:06.769Z,9.48
2022-10-09T21:34:08.300Z,9.64
2022-10-09T21:39:10.757Z,9.73
2022-10-09T21:44:12.310Z,9.68
2022-10-09T21:49:25.783Z,9.68
2022-10-09T21:54:27.556Z,9.62
2022-10-09T21:59:29.067Z,9.59
2022-10-09T22:04:30.780Z,9.59
2022-10-09T22:09:32.299Z,9.48
2022-10-09T22:14:33.842Z,9.56
2022-10-09T22:19:35.305Z,9.43
2022-10-09T22:24:36.861Z,9.39
2022-10-09T22:29:38.496Z,9.33
2022-10-09T22:35:05.846Z,9.24
2022-10-09T22:40:07.620Z,9.24
2022-10-09T22:45:09.540Z,9.23
2022-10-09T22:50:11.007Z,9.11
2022-10-09T22:55:12.493Z,9.03
2022-10-09T23:00:14.885Z,8.92
2022-10-09T23:05:16.547Z,8.78
2022-10-09T23:10:18.033Z,8.72
2022-10-09T23:15:19.562Z,8.74
2022-10-09T23:20:21.141Z,8.65
2022-10-09T23:25:22.666Z,8.57
2022-10-09T23:30:24.218Z,8.57
2022-10-09T23:35:25.687Z,8.60
2022-10-09T23:40:27.295Z,8.56
2022-10-09T23:45:28.783Z,8.51
2022-10-09T23:50:30.279Z,8.44
2022-10-09T23:55:31.769Z,8.37
